Last 7 Days

Pierce College

10 Minute Data | America/Los_Angeles
as of 12/4/21 8:58 PM PST
Date & Time Temp Max (°F) Temp Min (°F) RH (%) Dew Pt (°F) Latest Rain (In) Seasonal Rainfall (In) Soil Temp (°F) Soil Moist (%) Pressure (mb) Wind Spd (mph) Wind Dir (°) Wind Gust (mph) Wind Gst Dir (°) Leaf Wet Raw (mV) Net Radiation (W/m²) Evap Pan Wind Spd (mph) Evap Pan WindRun (miles) Evap Pan H2O Temp (°F) Evap Pan Level (In)
12/4/21 - 2040 49.2 48.4 82 43.6 0.00 0.78 64.1 22.5 1,021.0 0.6 SE | 140 1.5 SE | 137 261 -55 0.0 17.9 40.3 3.7
12/4/21 - 2030 49.2 48.6 82 43.6 0.00 0.78 64.1 22.5 1,021.0 0.3 SE | 144 1.3 SE | 145 266 -56 0.0 17.9 40.5 3.7
12/4/21 - 2020 49.7 48.7 81 43.7 0.00 0.78 64.0 22.5 1,021.0 0.6 SSE | 154 1.3 SE | 139 270 -57 0.1 17.9 40.6 3.7
12/4/21 - 2010 50.1 49.6 81 44.3 0.00 0.78 64.1 22.5 1,021.0 0.6 S | 170 1.3 S | 180 273 -56 0.1 17.9 40.8 3.7
12/4/21 - 2000 50.1 49.8 80 44.1 0.00 0.78 64.0 22.5 1,021.0 0.3 SSE | 147 1.3 SSE | 155 273 -60 0.0 17.9 41.3 3.7
12/4/21 - 1950 50.7 49.9 79 44.1 0.00 0.78 64.1 22.5 1,021.0 1.0 SSE | 159 2.2 SSE | 162 275 -60 0.1 17.9 41.2 3.7
12/4/21 - 1940 51.3 50.4 78 44.2 0.00 0.78 64.1 22.5 1,020.9 1.0 S | 179 1.8 SSW | 196 274 -59 0.0 17.9 41.5 3.7
12/4/21 - 1930 51.8 51.1 77 44.4 0.00 0.78 64.0 22.5 1,020.9 0.4 S | 170 0.8 SSE | 147 273 -60 0.2 17.9 41.9 3.7
12/4/21 - 1920 52.4 51.7 76 44.5 0.00 0.78 64.0 22.6 1,020.8 0.1 SSE | 157 0.9 SSE | 150 273 -61 0.0 17.8 42.6 3.7
12/4/21 - 1910 53.1 52.2 73 44.3 0.00 0.78 64.1 22.6 1,020.7 0.0 N | 0 0.0 S | 173 273 -62 0.0 17.8 43.5 3.7
12/4/21 - 1900 53.8 53.1 72 44.7 0.00 0.78 64.0 22.6 1,020.6 0.0 SSE | 156 0.5 SSE | 157 272 -63 0.0 17.8 44.5 3.7
12/4/21 - 1850 54.7 53.6 70 44.7 0.00 0.78 64.0 22.6 1,020.6 0.1 SSE | 162 1.1 SSE | 159 272 -64 0.0 17.8 45.8 3.7
12/4/21 - 1840 55.8 54.7 68 44.7 0.00 0.78 64.0 22.5 1,020.7 0.0 E | 83 0.5 E | 80 271 -66 0.0 17.8 47.4 3.7
12/4/21 - 1830 56.7 55.6 66 44.9 0.00 0.78 64.1 22.6 1,020.5 0.1 ENE | 63 0.9 ENE | 78 270 -69 0.1 17.8 48.9 3.7
12/4/21 - 1820 57.3 56.6 65 45.3 0.00 0.78 64.1 22.5 1,020.3 0.5 SSE | 168 1.6 S | 183 270 -70 0.0 17.8 50.1 3.7
12/4/21 - 1810 57.6 57.1 64 45.3 0.00 0.78 64.1 22.6 1,020.3 1.5 S | 180 2.8 SW | 215 269 -72 0.7 17.8 50.7 3.7
12/4/21 - 1800 58.1 57.4 63 45.3 0.00 0.78 64.0 22.6 1,020.3 1.2 SSW | 194 2.7 SSW | 210 269 -73 0.5 17.7 51.6 3.7
12/4/21 - 1750 58.4 57.9 62 45.4 0.00 0.78 64.0 22.6 1,020.2 0.9 SSW | 203 3.9 WSW | 256 269 -75 0.6 17.6 52.8 3.7
12/4/21 - 1740 58.8 58.3 62 45.4 0.00 0.78 64.0 22.5 1,020.1 0.8 SW | 224 2.5 WSW | 243 269 -76 0.5 17.5 54.1 3.7
12/4/21 - 1730 59.7 58.8 61 45.6 0.00 0.78 63.9 22.6 1,019.9 2.5 SW | 214 5.5 S | 188 268 -77 1.5 17.4 55.3 3.7
12/4/21 - 1720 60.4 59.5 59 45.6 0.00 0.78 63.8 22.6 1,019.9 3.2 SSW | 205 5.1 SW | 217 268 -78 2.2 17.2 56.2 3.7
12/4/21 - 1710 61.1 60.2 58 45.6 0.00 0.78 63.8 22.6 1,020.0 3.6 WSW | 242 6.4 WSW | 246 268 -78 2.4 16.8 57.4 3.7
12/4/21 - 1700 61.9 60.9 56 45.6 0.00 0.78 63.9 22.6 1,019.9 3.6 WSW | 246 6.5 SW | 218 268 -78 2.5 16.4 58.3 3.7
12/4/21 - 1650 62.7 61.8 54 45.5 0.00 0.78 63.8 22.6 1,019.9 3.6 WSW | 252 5.9 WSW | 249 268 -77 2.4 16.0 59.6 3.7
12/4/21 - 1640 63.3 62.5 53 45.5 0.00 0.78 63.9 22.6 1,019.8 4.0 WSW | 243 6.5 W | 259 268 -74 2.8 15.6 60.7 3.7
12/4/21 - 1630 64.0 63.3 51 45.5 0.00 0.78 63.8 22.6 1,019.7 4.0 WSW | 245 6.3 SW | 235 268 -70 2.8 15.1 62.2 3.8
12/4/21 - 1620 65.5 64.0 49 45.3 0.00 0.78 63.8 22.5 1,019.7 3.1 SW | 234 5.9 WSW | 254 267 -65 2.1 14.6 64.4 3.8
12/4/21 - 1610 66.8 65.4 47 45.2 0.00 0.78 63.7 22.5 1,019.6 2.9 SW | 231 6.2 SW | 234 266 -47 2.2 14.3 66.2 3.8
12/4/21 - 1600 67.6 66.7 45 45.4 0.00 0.78 63.7 22.6 1,019.6 3.2 WSW | 242 5.9 WSW | 240 266 -32 2.4 13.9 67.8 3.8
12/4/21 - 1550 68.4 67.4 45 45.8 0.00 0.78 63.8 22.6 1,019.5 3.3 WSW | 247 5.5 SW | 234 266 -15 2.5 13.5 69.0 3.8
12/4/21 - 1540 68.9 68.2 45 46.1 0.00 0.78 63.7 22.5 1,019.4 3.0 WSW | 247 4.7 WSW | 255 266 2 2.2 13.1 70.1 3.8
12/4/21 - 1530 71.0 68.7 42 46.0 0.00 0.78 63.7 22.5 1,019.4 2.6 SW | 217 4.6 SW | 216 266 21 2.0 12.7 71.0 3.8
12/4/21 - 1520 71.6 70.8 39 44.9 0.00 0.78 63.6 22.5 1,019.4 1.4 WSW | 242 3.0 WSW | 245 266 40 1.1 12.4 71.5 3.8
12/4/21 - 1510 71.0 70.0 40 44.9 0.00 0.78 63.6 22.5 1,019.6 0.7 NNE | 20 2.0 NNE | 26 266 60 0.2 12.2 71.6 3.8
12/4/21 - 1500 71.0 70.4 39 44.8 0.00 0.78 63.5 22.5 1,019.6 0.6 N | 3 2.7 N | 349 266 82 0.3 12.2 71.9 3.8
12/4/21 - 1450 70.2 69.6 40 44.6 0.00 0.78 63.6 22.5 1,019.6 0.8 NNE | 18 3.1 NNE | 28 266 103 0.3 12.1 72.2 3.8
12/4/21 - 1440 70.9 70.2 39 44.5 0.00 0.78 63.5 22.5 1,019.6 1.4 WSW | 248 3.6 SSW | 207 266 126 1.2 12.1 72.5 3.8
12/4/21 - 1430 71.0 70.3 40 45.6 0.00 0.78 63.5 22.5 1,019.6 0.9 W | 269 2.8 W | 265 266 145 0.9 11.9 72.6 3.8
12/4/21 - 1420 70.8 69.6 43 46.3 0.00 0.78 63.4 22.5 1,019.7 1.0 W | 265 2.5 S | 177 266 163 1.0 11.7 72.5 3.8
12/4/21 - 1410 70.5 69.5 44 47.0 0.00 0.78 63.4 22.5 1,019.7 1.2 WSW | 238 4.5 WSW | 246 266 180 0.9 11.6 72.4 3.8
12/4/21 - 1400 71.0 70.2 44 47.7 0.00 0.78 63.5 22.5 1,019.8 1.0 W | 276 3.4 WSW | 254 266 196 1.1 11.4 72.0 3.8
12/4/21 - 1350 70.2 67.8 47 47.9 0.00 0.78 63.4 22.5 1,019.9 0.5 ESE | 102 2.5 ESE | 109 266 209 0.9 11.2 71.6 3.8
12/4/21 - 1340 69.0 67.7 48 47.8 0.00 0.78 63.3 22.5 1,020.1 1.7 W | 262 5.0 W | 268 266 221 1.6 11.1 71.5 3.7
12/4/21 - 1330 68.0 67.3 49 47.8 0.00 0.78 63.4 22.5 1,020.1 1.8 WSW | 243 5.7 WSW | 255 266 228 1.4 10.8 70.9 3.7
12/4/21 - 1320 67.4 66.7 50 47.5 0.00 0.78 63.4 22.5 1,020.1 1.3 N | 6 2.9 N | 354 267 241 0.4 10.6 70.4 3.7
12/4/21 - 1310 67.4 66.6 49 47.2 0.00 0.78 63.4 22.5 1,020.3 1.4 NE | 46 3.7 W | 261 267 253 0.7 10.5 70.1 3.7
12/4/21 - 1300 67.0 66.5 49 47.0 0.00 0.78 63.4 22.5 1,020.4 1.0 SE | 137 2.6 NW | 320 267 264 0.7 10.4 69.6 3.7
12/4/21 - 1250 67.0 64.8 50 46.9 0.00 0.78 63.4 22.4 1,020.4 0.7 NW | 308 3.0 NE | 35 267 276 1.0 10.3 68.9 3.7
12/4/21 - 1240 64.9 64.0 52 46.4 0.00 0.78 63.4 22.5 1,020.5 1.9 W | 260 4.6 WSW | 243 267 286 1.8 10.1 68.5 3.7
12/4/21 - 1230 65.1 64.2 52 46.5 0.00 0.78 63.4 22.5 1,020.7 1.6 W | 280 3.6 WSW | 249 267 292 1.2 9.8 68.0 3.7
12/4/21 - 1220 65.2 64.2 52 46.6 0.00 0.78 63.4 22.5 1,020.9 0.6 NNW | 342 3.0 N | 354 268 299 1.2 9.6 67.2 3.7
12/4/21 - 1210 64.1 62.6 54 46.4 0.00 0.78 63.4 22.4 1,021.1 0.8 NNW | 334 2.5 NNE | 23 268 304 0.8 9.4 66.3 3.7
12/4/21 - 1200 62.8 61.7 55 46.1 0.00 0.78 63.4 22.4 1,021.3 1.0 W | 263 2.8 SW | 231 268 307 1.0 9.2 65.6 3.7
12/4/21 - 1150 61.5 59.9 59 46.0 0.00 0.78 63.3 22.4 1,021.5 1.4 SW | 218 3.4 S | 186 268 311 1.6 9.1 65.3 3.7
12/4/21 - 1140 60.9 59.8 58 45.9 0.00 0.78 63.3 22.4 1,021.8 1.2 WSW | 240 3.5 SW | 235 268 310 1.3 8.8 64.4 3.7
12/4/21 - 1130 60.7 59.4 60 46.2 0.00 0.78 63.3 22.4 1,021.9 1.4 WNW | 295 4.2 WSW | 255 269 309 1.6 8.6 63.6 3.7
12/4/21 - 1120 59.5 58.0 64 46.3 0.00 0.78 63.4 22.4 1,022.1 1.0 NNE | 31 3.3 N | 8 269 306 0.9 8.3 63.1 3.7
12/4/21 - 1110 59.0 58.5 63 46.2 0.00 0.78 63.4 22.4 1,022.3 1.0 N | 359 3.6 NNE | 15 270 301 0.7 8.2 62.6 3.7
12/4/21 - 1100 58.6 56.6 66 46.4 0.00 0.78 63.3 22.4 1,022.5 0.6 NNE | 33 2.6 NNE | 30 270 295 0.7 8.1 62.0 3.7
12/4/21 - 1050 57.5 55.5 69 46.4 0.00 0.78 63.3 22.4 1,022.7 1.2 N | 6 4.0 N | 1 269 289 1.0 8.0 61.4 3.7
12/4/21 - 1040 57.1 56.2 68 46.4 0.00 0.78 63.4 22.4 1,022.9 1.4 NW | 325 3.7 SW | 232 270 284 1.1 7.8 60.9 3.7
12/4/21 - 1030 56.7 55.0 72 47.0 0.00 0.78 63.4 22.4 1,022.9 0.7 NNW | 342 2.7 N | 10 270 280 0.6 7.6 60.8 3.7
12/4/21 - 1020 54.8 52.5 78 47.0 0.00 0.78 63.4 22.4 1,023.0 0.6 N | 355 3.3 NE | 35 270 261 1.0 7.5 62.0 3.7
12/4/21 - 1010 52.8 51.6 82 46.8 0.00 0.78 63.3 22.4 1,022.9 1.0 NNE | 13 3.4 N | 4 270 245 0.8 7.3 62.8 3.7
12/4/21 - 1000 51.8 50.6 85 46.8 0.00 0.78 63.4 22.4 1,022.9 1.0 NNE | 29 3.1 NNE | 16 271 162 0.3 7.2 60.8 3.7
12/4/21 - 0950 50.7 50.2 86 46.5 0.00 0.78 63.5 22.5 1,022.9 0.8 ESE | 109 2.7 W | 265 272 119 0.5 7.2 59.2 3.7
12/4/21 - 0940 50.2 49.1 88 46.3 0.00 0.78 63.3 22.4 1,022.7 0.9 WNW | 293 4.1 WSW | 256 272 102 0.9 7.1 58.5 3.7
12/4/21 - 0930 49.1 48.8 88 45.5 0.00 0.78 63.4 22.5 1,022.7 1.9 WSW | 252 4.4 WSW | 248 273 101 1.6 6.9 58.2 3.7
12/4/21 - 0920 49.1 48.6 88 45.4 0.00 0.78 63.4 22.4 1,022.6 2.6 SW | 218 4.5 WSW | 257 273 106 2.0 6.7 57.1 3.7
12/4/21 - 0910 49.2 48.8 88 45.6 0.00 0.78 63.4 22.4 1,022.5 2.0 SW | 216 4.1 WSW | 255 273 82 1.4 6.3 56.4 3.7
12/4/21 - 0900 49.2 48.8 88 45.6 0.00 0.78 63.4 22.4 1,022.4 2.7 SSW | 194 5.4 SW | 233 273 70 2.0 6.1 55.6 3.7
12/4/21 - 0850 49.3 48.8 88 45.5 0.00 0.78 63.4 22.5 1,022.3 3.7 SSW | 201 5.4 SSW | 206 273 60 2.7 5.7 55.3 3.7
12/4/21 - 0840 49.5 49.2 88 45.8 0.00 0.78 63.3 22.5 1,022.3 2.5 SW | 218 4.2 SSW | 211 273 51 1.7 5.3 55.0 3.7
12/4/21 - 0830 49.7 49.2 87 45.9 0.00 0.78 63.3 22.5 1,022.3 2.8 SW | 225 4.6 WSW | 238 273 44 2.0 5.0 54.3 3.7
12/4/21 - 0820 49.8 49.5 88 46.0 0.00 0.78 63.2 22.5 1,022.2 2.7 SW | 216 4.0 SW | 222 273 37 2.1 4.7 53.9 3.7
12/4/21 - 0810 50.0 49.6 87 46.2 0.00 0.78 63.3 22.5 1,022.1 2.3 SW | 236 4.3 SW | 217 273 28 1.8 4.3 53.6 3.7
12/4/21 - 0800 50.0 49.6 87 46.2 0.00 0.78 63.4 22.5 1,022.1 1.9 S | 189 3.4 SSW | 209 273 24 1.4 4.0 53.2 3.7
12/4/21 - 0750 50.0 49.6 87 46.2 0.00 0.78 63.4 22.5 1,022.0 2.0 S | 174 3.9 S | 188 274 18 1.1 3.8 52.8 3.7
12/4/21 - 0740 50.0 49.6 87 46.2 0.00 0.78 63.4 22.5 1,021.9 1.8 SSE | 166 3.6 S | 171 274 13 1.2 3.6 52.5 3.7
12/4/21 - 0730 50.1 49.8 87 46.1 0.00 0.78 63.4 22.5 1,021.8 1.8 SSE | 160 3.9 SSE | 159 274 8 0.6 3.4 52.2 3.7
12/4/21 - 0720 50.3 49.9 86 46.2 0.00 0.78 63.5 22.4 1,021.7 1.0 SE | 146 2.4 SSW | 194 274 3 0.4 3.3 51.9 3.7
12/4/21 - 0710 50.2 49.9 87 46.2 0.00 0.78 63.5 22.5 1,021.6 1.6 SSW | 212 3.9 SSW | 200 274 -1 1.2 3.3 51.7 3.7
12/4/21 - 0700 50.4 50.0 86 46.2 0.00 0.78 63.5 22.5 1,021.4 2.4 SSW | 207 3.8 S | 188 274 -4 1.7 3.1 51.6 3.7
12/4/21 - 0650 50.5 50.2 86 46.4 0.00 0.78 63.5 22.5 1,021.3 1.0 SSW | 209 3.7 WSW | 245 274 -6 0.7 2.8 51.6 3.7
12/4/21 - 0640 50.6 50.3 86 46.4 0.00 0.78 64.0 22.5 1,021.3 1.3 WSW | 238 3.0 WSW | 245 274 -7 1.0 2.7 52.0 3.7
12/4/21 - 0630 50.8 50.4 86 46.6 0.00 0.78 64.0 22.5 1,021.2 1.1 SSW | 206 2.4 SW | 234 274 -8 0.6 2.5 51.9 3.7
12/4/21 - 0620 50.8 50.4 86 46.7 0.00 0.78 63.8 22.5 1,021.2 0.1 NW | 309 0.9 WNW | 302 274 -9 0.1 2.4 51.7 3.7
12/4/21 - 0610 50.8 50.3 86 46.6 0.00 0.78 63.5 22.5 1,021.1 0.6 E | 95 2.1 SSE | 166 274 -9 0.1 2.4 51.5 3.7
12/4/21 - 0600 50.6 50.3 87 46.6 0.00 0.78 64.0 22.5 1,021.0 0.9 ENE | 72 2.1 ENE | 69 274 -10 0.1 2.4 51.8 3.7
12/4/21 - 0550 50.6 50.3 86 46.5 0.00 0.78 64.0 22.5 1,021.0 1.5 SE | 133 2.9 SE | 137 274 -12 0.3 2.3 52.0 3.7
12/4/21 - 0540 50.8 50.4 86 46.6 0.00 0.78 63.6 22.5 1,021.0 2.2 SSW | 207 3.3 SW | 234 274 -10 1.6 2.3 52.0 3.7
12/4/21 - 0530 50.9 50.6 86 46.8 0.00 0.78 63.5 22.5 1,021.0 1.9 SW | 236 2.8 W | 262 274 -8 1.3 2.0 52.0 3.7
12/4/21 - 0520 51.1 50.8 86 46.9 0.00 0.78 63.5 22.5 1,020.8 1.2 SW | 226 3.1 WNW | 282 274 -8 0.7 1.8 52.0 3.7
12/4/21 - 0510 51.2 50.8 86 47.1 0.00 0.78 63.6 22.5 1,020.8 0.7 S | 190 1.4 S | 176 274 -8 0.3 1.7 52.1 3.7
12/4/21 - 0500 51.2 50.9 86 47.2 0.00 0.78 63.9 22.5 1,020.8 0.4 SSW | 211 1.8 SSW | 212 274 -9 0.2 1.6 52.4 3.7
12/4/21 - 0450 51.2 50.9 87 47.3 0.00 0.78 63.4 22.5 1,020.8 0.9 SW | 226 2.7 WSW | 248 274 -8 0.6 1.6 51.9 3.7
12/4/21 - 0440 51.2 51.1 87 47.4 0.00 0.78 63.3 22.5 1,020.7 0.1 W | 263 1.5 WNW | 283 274 -7 0.0 1.5 51.8 3.7
12/4/21 - 0430 51.3 51.0 87 47.5 0.00 0.78 63.3 22.5 1,020.7 0.4 NNE | 21 2.2 N | 11 274 -6 0.1 1.5 51.7 3.7
12/4/21 - 0420 51.2 51.0 88 47.6 0.00 0.78 63.5 22.5 1,020.7 0.2 NNE | 20 2.2 N | 4 274 -6 0.0 1.5 51.7 3.7
12/4/21 - 0410 51.2 50.8 88 47.6 0.00 0.78 63.7 22.5 1,020.6 0.3 ESE | 113 1.6 NE | 41 275 -6 0.1 1.5 51.5 3.7
12/4/21 - 0400 51.0 50.7 88 47.5 0.00 0.78 63.7 22.5 1,020.7 0.5 ENE | 74 3.1 E | 90 275 -5 0.1 1.4 50.9 3.7
12/4/21 - 0350 50.9 50.2 88 47.3 0.00 0.78 63.9 22.5 1,020.7 0.2 NNE | 25 2.1 NNE | 24 275 -4 0.0 1.4 50.0 3.7
12/4/21 - 0340 50.4 50.0 88 46.8 0.00 0.78 64.3 22.5 1,020.8 0.0 N | 0 0.0 S | 183 276 -4 0.0 1.4 48.9 3.7
12/4/21 - 0330 50.0 49.4 88 46.2 0.00 0.78 64.2 22.5 1,020.8 0.4 SSE | 154 2.2 ENE | 62 276 -4 0.0 1.4 47.4 3.7
12/4/21 - 0320 50.3 49.5 87 46.1 0.00 0.78 64.3 22.5 1,020.8 0.0 N | 0 0.0 ENE | 64 266 -18 0.0 1.4 46.6 3.7
12/4/21 - 0310 50.7 50.2 87 46.8 0.00 0.78 64.3 22.5 1,020.7 0.3 SSW | 195 1.4 SSW | 211 260 -47 0.0 1.4 47.9 3.7
12/4/21 - 0300 51.0 50.6 87 47.1 0.00 0.78 64.2 22.5 1,020.7 0.5 SW | 232 1.9 SW | 219 269 -57 0.2 1.4 50.4 3.7
12/4/21 - 0250 51.4 50.9 87 47.3 0.00 0.78 64.2 22.5 1,020.6 1.5 SW | 235 3.9 SW | 222 274 -38 1.0 1.4 51.8 3.7
12/4/21 - 0240 51.6 51.3 86 47.5 0.00 0.78 63.9 22.5 1,020.6 1.9 S | 174 3.5 SSW | 195 275 -21 1.0 1.2 51.9 3.7
12/4/21 - 0230 51.7 51.4 86 47.6 0.00 0.78 63.7 22.5 1,020.5 1.3 SSW | 207 2.7 SSW | 206 274 -20 0.8 1.1 52.1 3.7
12/4/21 - 0220 51.8 51.5 86 47.6 0.00 0.78 63.4 22.5 1,020.5 1.3 SSE | 154 2.9 SE | 125 274 -14 0.3 0.9 52.1 3.7
12/4/21 - 0210 52.0 51.5 86 47.6 0.00 0.78 63.5 22.5 1,020.4 1.8 SSW | 203 2.9 SSW | 197 274 -16 1.3 0.9 52.5 3.7
12/4/21 - 0200 52.3 51.8 85 47.7 0.00 0.78 63.5 22.5 1,020.5 1.3 SW | 225 2.4 SW | 218 274 -11 1.1 0.7 52.7 3.7
12/4/21 - 0150 52.4 52.0 85 47.8 0.00 0.78 63.6 22.5 1,020.5 1.1 W | 272 2.9 WSW | 240 274 -11 1.2 0.5 52.9 3.7
12/4/21 - 0140 52.4 52.1 85 47.9 0.00 0.78 63.6 22.5 1,020.7 0.9 WSW | 258 3.0 WSW | 245 274 -10 0.7 0.3 52.8 3.7
12/4/21 - 0130 52.4 52.1 85 47.9 0.00 0.78 63.7 22.5 1,020.7 0.1 N | 353 1.3 NW | 315 274 -8 0.0 0.2 52.8 3.7
12/4/21 - 0120 52.3 51.8 85 47.7 0.00 0.78 63.8 22.5 1,020.8 0.2 NNE | 32 1.3 ENE | 74 274 -7 0.1 0.2 52.7 3.7
12/4/21 - 0110 52.0 51.7 85 47.5 0.00 0.78 63.9 22.5 1,020.8 0.2 ESE | 111 1.0 ESE | 123 273 -7 0.0 0.2 52.6 3.7
12/4/21 - 0100 51.9 51.7 85 47.6 0.00 0.78 63.9 22.5 1,020.9 0.2 SSW | 212 0.8 SSW | 204 273 -6 0.0 0.2 52.5 3.7
12/4/21 - 0050 52.0 51.6 86 47.6 0.00 0.78 64.0 22.5 1,020.9 0.0 N | 0 0.0 SSE | 160 274 -5 0.0 0.2 52.4 3.7
12/4/21 - 0040 51.7 51.4 86 47.5 0.00 0.78 64.1 22.5 1,021.0 0.0 N | 0 0.0 SW | 230 274 -5 0.0 0.2 52.3 3.7
12/4/21 - 0030 51.5 51.1 86 47.3 0.00 0.78 64.1 22.5 1,021.1 0.2 SW | 215 1.2 SSW | 210 274 -5 0.1 0.2 52.2 3.7
12/4/21 - 0020 51.4 51.1 86 47.2 0.00 0.78 64.0 22.5 1,021.2 0.6 S | 185 1.9 SSW | 202 274 -5 0.2 0.1 51.8 3.7
12/4/21 - 0010 51.1 50.8 86 47.0 0.00 0.78 63.8 22.5 1,021.2 1.1 SSW | 192 2.2 SSW | 193 274 -5 0.6 0.1 51.5 3.7
12/4/21 - 0000 50.9 50.5 87 46.9 0.00 0.78 64.2 22.5 1,021.3 1.1 SSE | 159 2.5 SSE | 163 274 -5 0.8 15.0 51.4 3.7
12/3/21 - 2350 50.5 50.2 87 46.6 0.00 0.78 64.3 22.5 1,021.3 1.1 SE | 136 2.2 SE | 131 274 -4 0.1 14.9 51.2 3.7
12/3/21 - 2340 50.7 50.1 87 46.8 0.00 0.78 64.4 22.5 1,021.3 0.8 SE | 126 2.5 SE | 127 275 -4 0.0 14.9 51.0 3.7
12/3/21 - 2330 51.0 50.6 88 47.3 0.00 0.78 64.4 22.5 1,021.4 0.4 NE | 53 1.5 ENE | 60 274 -6 0.0 14.9 50.8 3.7
12/3/21 - 2320 50.9 50.7 88 47.5 0.00 0.78 64.5 22.6 1,021.4 0.0 SE | 127 0.4 SE | 127 276 -3 0.0 14.9 50.4 3.7
12/3/21 - 2310 51.1 50.6 89 47.7 0.00 0.78 64.6 22.5 1,021.4 0.1 E | 86 1.1 E | 88 276 -2 0.0 14.9 49.6 3.7
12/3/21 - 2300 50.8 49.7 89 47.2 0.00 0.78 64.6 22.5 1,021.3 0.1 SW | 234 1.2 WSW | 254 274 -1 0.1 14.9 48.2 3.7
12/3/21 - 2250 49.9 48.9 90 46.6 0.00 0.78 64.6 22.5 1,021.3 0.1 SE | 140 0.9 SE | 131 280 -1 0.0 14.9 46.2 3.7
12/3/21 - 2240 48.9 46.9 90 44.9 0.00 0.78 64.8 22.5 1,021.3 0.3 WNW | 300 2.2 NNE | 12 288 -0 0.0 14.9 42.9 3.7
12/3/21 - 2230 47.1 45.9 89 43.3 0.00 0.78 64.7 22.5 1,021.3 0.4 WSW | 245 1.6 SW | 227 295 -1 0.1 14.9 39.2 3.7
12/3/21 - 2220 46.6 46.0 88 43.0 0.00 0.78 64.8 22.5 1,021.2 0.1 SW | 224 0.9 SW | 235 303 -17 0.1 14.8 37.4 3.7
12/3/21 - 2210 47.0 46.4 88 43.2 0.00 0.78 64.8 22.6 1,021.1 0.2 S | 188 1.1 SSW | 201 301 -23 0.0 14.8 37.5 3.7
12/3/21 - 2200 47.0 46.5 88 43.2 0.00 0.78 64.7 22.6 1,021.0 0.0 SSW | 211 0.4 SSW | 211 295 -25 0.0 14.8 37.8 3.7
12/3/21 - 2150 47.4 46.8 88 43.6 0.00 0.78 64.7 22.5 1,020.9 0.5 SSW | 210 1.7 SW | 221 290 -25 0.0 14.8 37.9 3.7
12/3/21 - 2140 47.4 47.1 88 43.7 0.00 0.78 64.6 22.6 1,020.8 0.3 S | 172 1.0 S | 182 287 -27 0.0 14.8 38.3 3.7
12/3/21 - 2130 47.4 47.0 87 43.6 0.00 0.78 64.7 22.6 1,020.6 0.1 S | 175 0.6 SSW | 201 284 -31 0.0 14.8 38.6 3.7
12/3/21 - 2120 47.8 47.2 86 43.5 0.00 0.78 64.7 22.6 1,020.5 0.7 SSE | 166 1.9 S | 177 279 -32 0.0 14.8 38.5 3.7
12/3/21 - 2110 48.1 47.7 86 44.1 0.00 0.78 64.6 22.6 1,020.3 0.4 SSE | 160 1.2 SSE | 150 277 -33 0.0 14.8 38.5 3.7
12/3/21 - 2100 48.5 47.8 86 44.2 0.00 0.78 64.6 22.6 1,020.1 0.3 S | 181 1.0 SSW | 196 274 -35 0.0 14.8 38.8 3.7
12/3/21 - 2050 48.9 48.4 86 44.5 0.00 0.78 64.6 22.6 1,020.0 0.6 S | 180 1.6 S | 177 272 -37 0.0 14.8 39.2 3.7
12/3/21 - 2040 49.1 48.7 85 44.6 0.00 0.78 64.5 22.6 1,020.0 0.3 S | 182 0.9 SSW | 198 269 -42 0.0 14.8 39.5 3.7
12/3/21 - 2030 49.3 48.7 84 44.3 0.00 0.78 64.5 22.6 1,019.9 0.2 SSE | 155 0.9 SSE | 162 267 -47 0.1 14.8 40.0 3.7
12/3/21 - 2020 49.5 49.1 83 44.2 0.00 0.78 64.4 22.6 1,019.9 0.0 N | 0 0.0 SSW | 202 263 -51 0.0 14.8 40.5 3.7
12/3/21 - 2010 50.0 49.4 82 44.5 0.00 0.78 64.4 22.6 1,019.8 0.0 SSW | 196 0.4 SSW | 196 262 -55 0.0 14.8 41.1 3.7
12/3/21 - 2000 50.1 49.8 81 44.4 0.00 0.78 64.4 22.6 1,019.8 0.1 S | 174 0.9 S | 188 263 -58 0.0 14.8 41.6 3.7
12/3/21 - 1950 50.9 50.1 80 44.3 0.00 0.78 64.3 22.6 1,019.8 0.4 SSE | 153 1.2 SE | 139 269 -60 0.1 14.8 42.0 3.7
12/3/21 - 1940 51.9 50.8 78 44.8 0.00 0.78 64.3 22.6 1,019.7 0.1 SSW | 203 1.0 SW | 233 272 -61 0.0 14.8 42.6 3.7
12/3/21 - 1930 52.0 51.5 78 45.1 0.00 0.78 64.3 22.6 1,019.6 0.0 N | 0 0.0 SW | 220 273 -62 0.0 14.8 43.3 3.7
12/3/21 - 1920 52.3 51.8 76 44.8 0.00 0.78 64.2 22.6 1,019.6 0.3 S | 181 1.1 S | 173 274 -62 0.0 14.8 44.4 3.7
12/3/21 - 1910 53.1 52.3 73 44.4 0.00 0.78 64.2 22.6 1,019.5 0.0 W | 268 0.6 W | 261 272 -63 0.0 14.8 45.9 3.7
12/3/21 - 1900 54.0 53.1 73 44.9 0.00 0.78 64.2 22.6 1,019.4 0.0 N | 0 0.0 SSW | 193 272 -66 0.0 14.8 47.5 3.7
12/3/21 - 1850 54.6 53.7 72 45.4 0.00 0.78 64.2 22.6 1,019.3 0.4 SSW | 208 1.8 SW | 226 271 -68 0.1 14.8 49.2 3.7
12/3/21 - 1840 54.9 54.5 71 45.5 0.00 0.78 64.2 22.6 1,019.3 1.0 SW | 225 3.0 W | 269 270 -70 0.5 14.8 50.3 3.7
12/3/21 - 1830 55.4 54.7 70 45.6 0.00 0.78 64.2 22.6 1,019.3 2.2 SSW | 207 5.1 WSW | 242 270 -70 1.3 14.7 51.0 3.7
12/3/21 - 1820 55.8 55.3 69 45.5 0.00 0.78 64.2 22.6 1,019.2 2.4 SSW | 208 5.6 SW | 215 270 -71 1.4 14.4 51.5 3.7
12/3/21 - 1810 56.6 55.7 67 45.5 0.00 0.78 64.5 22.6 1,019.2 2.1 SSW | 212 4.4 SW | 229 269 -71 1.4 14.2 52.5 3.7
12/3/21 - 1800 57.2 56.4 66 45.7 0.00 0.78 64.4 22.6 1,019.1 3.2 SW | 216 6.7 SW | 229 269 -72 2.2 14.0 53.1 3.7
12/3/21 - 1750 57.8 57.0 65 45.6 0.00 0.78 64.6 22.6 1,019.0 2.7 SW | 214 5.8 SSW | 205 269 -73 1.8 13.6 53.8 3.7
12/3/21 - 1740 58.5 57.8 63 45.7 0.00 0.78 64.5 22.6 1,018.8 2.9 SSW | 212 5.9 SW | 225 269 -74 2.1 13.3 54.3 3.7
12/3/21 - 1730 59.2 58.5 61 45.7 0.00 0.78 64.5 22.6 1,018.7 2.3 SSW | 213 4.7 WSW | 243 268 -74 1.6 13.0 55.2 3.7
12/3/21 - 1720 60.2 59.2 60 45.7 0.00 0.78 64.6 22.6 1,018.5 2.3 SW | 222 5.2 SW | 228 268 -75 1.5 12.7 56.1 3.7
12/3/21 - 1710 61.1 60.1 58 45.8 0.00 0.78 64.6 22.6 1,018.4 2.6 SW | 224 5.2 W | 262 268 -76 1.8 12.4 57.6 3.7
12/3/21 - 1700 61.9 61.1 57 46.0 0.00 0.78 64.4 22.6 1,018.3 3.8 WSW | 246 6.0 SW | 215 268 -76 2.6 12.2 58.4 3.7
12/3/21 - 1650 62.5 61.7 56 46.1 0.00 0.78 64.5 22.6 1,018.1 2.9 WSW | 241 5.3 SSW | 209 268 -75 1.9 11.7 59.3 3.8
12/3/21 - 1640 63.6 62.4 54 46.2 0.00 0.78 64.5 22.6 1,018.0 2.5 SW | 235 5.2 SSW | 195 268 -72 1.5 11.4 60.8 3.7
12/3/21 - 1630 64.6 63.4 52 46.3 0.00 0.78 64.5 22.6 1,018.0 2.7 SW | 233 5.4 SW | 229 267 -67 1.9 11.2 62.2 3.8
12/3/21 - 1620 66.0 64.5 50 46.2 0.00 0.78 64.4 22.6 1,017.9 2.9 SW | 230 5.1 W | 265 267 -60 2.0 10.8 63.7 3.8
12/3/21 - 1610 68.3 66.0 47 46.4 0.00 0.78 64.4 22.6 1,017.7 1.0 SW | 224 4.1 SW | 232 267 -43 0.6 10.5 65.6 3.8
12/3/21 - 1600 68.5 68.2 46 46.9 0.00 0.78 64.4 22.6 1,017.7 0.0 SE | 136 0.6 SE | 136 266 -38 0.1 10.4 67.4 3.8
12/3/21 - 1550 68.7 68.1 46 46.6 0.00 0.78 64.4 22.6 1,017.7 0.1 SSE | 164 1.2 S | 169 266 -23 0.1 10.4 68.5 3.8
12/3/21 - 1540 69.0 68.2 46 46.7 0.00 0.78 64.4 22.6 1,017.6 0.9 ESE | 113 2.3 ESE | 106 266 -4 0.3 10.4 69.3 3.8
12/3/21 - 1530 69.3 68.8 43 45.8 0.00 0.78 64.4 22.6 1,017.6 0.4 SE | 131 1.4 SE | 144 266 14 0.3 10.3 70.0 3.8
12/3/21 - 1520 69.3 68.0 45 46.4 0.00 0.78 64.4 22.6 1,017.6 0.7 SSE | 166 2.1 S | 183 266 33 0.7 10.3 70.6 3.8
12/3/21 - 1510 69.3 68.2 45 46.8 0.00 0.78 64.3 22.6 1,017.6 1.2 NE | 45 2.3 ENE | 74 266 53 0.3 10.2 71.1 3.8
12/3/21 - 1500 70.0 68.6 44 46.5 0.00 0.78 64.3 22.5 1,017.6 0.9 SSW | 194 2.6 E | 89 266 75 0.6 10.1 71.3 3.8
12/3/21 - 1450 68.6 68.2 46 46.6 0.00 0.78 64.3 22.6 1,017.6 1.0 E | 94 2.6 E | 84 266 96 0.5 10.0 71.7 3.8
12/3/21 - 1440 68.8 68.0 46 46.8 0.00 0.78 64.2 22.5 1,017.7 1.3 ESE | 115 3.0 E | 98 266 115 0.6 9.9 71.9 3.7
12/3/21 - 1430 68.9 68.4 46 46.9 0.00 0.78 64.2 22.5 1,017.7 1.2 NE | 45 3.0 E | 90 266 135 0.5 9.8 72.4 3.8
12/3/21 - 1420 69.7 68.8 45 47.1 0.00 0.78 64.2 22.5 1,017.8 0.9 NNW | 332 3.3 N | 351 266 153 0.6 9.8 72.3 3.8
12/3/21 - 1410 69.4 68.3 46 47.1 0.00 0.78 64.2 22.5 1,017.9 1.1 W | 262 3.0 SSW | 212 266 170 1.2 9.6 72.2 3.8
12/3/21 - 1400 68.4 67.4 47 47.3 0.00 0.78 64.1 22.5 1,017.9 0.8 NE | 38 2.4 E | 87 266 187 0.4 9.4 71.8 3.8
12/3/21 - 1350 67.5 66.6 49 47.4 0.00 0.78 64.1 22.5 1,018.0 1.5 ESE | 105 3.3 SW | 235 266 200 0.9 9.4 71.2 3.8
12/3/21 - 1340 67.5 66.6 49 47.3 0.00 0.78 64.2 22.5 1,018.1 1.7 NE | 43 3.4 N | 7 266 214 0.8 9.2 70.8 3.7
12/3/21 - 1330 67.2 66.4 49 47.2 0.00 0.78 64.2 22.5 1,018.2 1.6 SW | 229 3.3 WSW | 244 266 229 1.5 9.1 70.4 3.7
12/3/21 - 1320 67.2 64.6 52 47.4 0.00 0.78 64.2 22.5 1,018.4 0.8 NNE | 30 3.6 NE | 44 266 241 0.9 8.8 70.4 3.7
12/3/21 - 1310 66.1 65.2 51 47.2 0.00 0.78 64.2 22.5 1,018.5 1.5 NNE | 28 3.9 NE | 45 266 249 0.5 8.7 70.6 3.8
12/3/21 - 1300 66.1 65.0 52 47.2 0.00 0.78 64.2 22.5 1,018.7 1.3 NNE | 18 2.5 NNE | 21 267 261 0.4 8.6 70.2 3.7
12/3/21 - 1250 66.0 64.9 52 47.3 0.00 0.78 64.1 22.5 1,018.8 1.1 NE | 40 2.5 N | 354 267 268 0.3 8.6 69.6 3.7
12/3/21 - 1240 65.2 64.5 53 47.2 0.00 0.78 64.1 22.5 1,018.8 1.0 NNE | 18 2.4 NNE | 28 267 281 0.5 8.5 68.8 3.7
12/3/21 - 1230 64.5 63.0 55 47.1 0.00 0.78 64.1 22.5 1,019.1 1.3 NNW | 348 3.9 N | 5 267 283 0.9 8.4 68.4 3.7
12/3/21 - 1220 63.5 62.8 55 46.9 0.00 0.78 64.1 22.5 1,019.1 1.1 NNE | 28 3.4 NNE | 29 268 291 0.4 8.3 67.8 3.7
12/3/21 - 1210 63.9 62.5 55 47.0 0.00 0.78 63.4 22.5 1,019.3 0.9 NE | 55 2.7 E | 95 268 297 0.6 8.2 66.6 3.7
12/3/21 - 1200 62.6 59.8 59 46.8 0.00 0.78 63.4 22.5 1,019.5 0.6 E | 88 2.0 ESE | 106 268 304 0.4 8.1 65.8 3.7
12/3/21 - 1150 60.9 59.8 60 46.4 0.00 0.78 63.4 22.5 1,019.6 1.7 NNE | 24 4.2 NNE | 28 268 302 0.8 8.0 65.4 3.7
12/3/21 - 1140 60.6 60.0 61 46.7 0.00 0.78 63.4 22.5 1,019.7 1.2 NE | 56 2.5 NNE | 20 268 304 0.5 7.9 64.9 3.7
12/3/21 - 1130 60.3 59.6 62 46.8 0.00 0.78 63.4 22.5 1,019.8 1.1 NE | 35 2.8 NE | 35 268 298 0.5 7.8 64.2 3.7
12/3/21 - 1120 60.1 59.4 62 46.9 0.00 0.78 63.4 22.5 1,020.0 0.6 NNW | 333 2.4 NW | 322 269 295 0.6 7.7 63.8 3.7
12/3/21 - 1110 59.5 58.1 65 47.0 0.00 0.78 63.4 22.5 1,020.2 0.7 NW | 324 2.4 W | 275 270 294 0.8 7.6 63.3 3.7
12/3/21 - 1100 58.6 57.7 65 46.8 0.00 0.78 63.3 22.5 1,020.4 1.1 N | 353 2.5 W | 264 269 297 0.9 7.5 63.4 3.7
12/3/21 - 1050 57.7 56.4 69 47.0 0.00 0.78 63.4 22.5 1,020.6 0.8 N | 358 2.6 NNE | 33 269 291 0.8 7.4 63.3 3.7
12/3/21 - 1040 56.5 55.2 72 46.9 0.00 0.78 63.3 22.5 1,020.8 0.9 N | 360 3.8 NNE | 27 269 307 0.9 7.2 63.8 3.7
12/3/21 - 1030 55.3 54.0 76 47.2 0.00 0.78 63.3 22.5 1,020.9 0.4 W | 280 1.7 NW | 324 270 175 0.7 7.1 64.3 3.7
12/3/21 - 1020 53.9 53.1 78 46.8 0.00 0.78 63.3 22.5 1,021.0 0.6 SW | 233 2.0 WSW | 252 271 156 0.7 7.0 63.8 3.7
12/3/21 - 1010 53.2 52.5 80 46.8 0.00 0.78 63.3 22.5 1,021.1 0.7 ESE | 117 2.9 SE | 128 271 135 0.4 6.8 62.7 3.7
12/3/21 - 1000 52.7 52.1 81 46.8 0.00 0.78 63.3 22.5 1,021.2 0.5 S | 177 1.7 SW | 224 271 111 0.4 6.8 62.1 3.7
12/3/21 - 0950 52.2 51.7 83 46.7 0.00 0.78 63.2 22.5 1,021.3 1.4 ESE | 108 4.5 E | 81 271 124 0.6 6.7 60.7 3.7
12/3/21 - 0940 52.1 51.7 84 47.2 0.00 0.78 63.2 22.5 1,021.3 0.7 SE | 127 3.4 ENE | 77 271 110 0.4 6.6 59.5 3.7
12/3/21 - 0930 51.8 50.8 86 47.2 0.00 0.78 63.2 22.5 1,021.4 0.3 NW | 324 1.6 NW | 313 272 85 0.6 6.5 58.2 3.7
12/3/21 - 0920 51.0 50.6 87 47.2 0.00 0.78 63.2 22.5 1,021.4 0.6 NE | 34 2.1 NNE | 24 272 73 0.4 6.4 57.4 3.7
12/3/21 - 0910 50.8 49.8 88 46.8 0.00 0.78 63.2 22.5 1,021.3 0.6 NNE | 19 2.5 NNW | 346 272 65 0.2 6.4 56.5 3.7
12/3/21 - 0900 50.0 49.6 88 46.4 0.00 0.78 63.3 22.5 1,021.2 2.0 ESE | 105 3.9 SE | 139 273 57 0.2 6.3 56.0 3.7
12/3/21 - 0850 50.1 49.6 89 46.7 0.00 0.78 63.2 22.5 1,021.2 1.1 ESE | 112 3.7 SE | 141 273 53 0.2 6.3 55.2 3.7
12/3/21 - 0840 49.7 49.3 89 46.4 0.00 0.78 63.3 22.5 1,021.2 1.3 SW | 226 3.4 SW | 225 273 43 1.1 6.3 54.3 3.7
12/3/21 - 0830 49.6 49.3 89 46.4 0.00 0.78 63.3 22.5 1,021.1 1.0 WSW | 238 2.3 N | 11 273 36 0.6 6.1 53.7 3.7
12/3/21 - 0820 50.0 49.5 90 46.8 0.00 0.78 63.3 22.5 1,021.1 1.5 ENE | 76 3.6 NE | 34 273 34 0.2 6.0 53.4 3.7
12/3/21 - 0810 49.8 49.3 90 46.9 0.00 0.78 63.3 22.5 1,021.1 0.2 W | 268 2.1 ENE | 69 273 23 0.5 6.0 52.8 3.7
12/3/21 - 0800 49.7 49.3 90 46.8 0.00 0.78 63.3 22.5 1,021.1 1.2 NE | 47 2.5 ENE | 57 273 18 0.2 5.9 52.3 3.7
12/3/21 - 0750 49.6 49.3 91 47.0 0.00 0.78 63.3 22.5 1,021.1 0.9 ENE | 61 2.4 E | 99 274 13 0.2 5.8 51.9 3.7
12/3/21 - 0740 49.6 49.3 91 47.0 0.00 0.78 63.3 22.5 1,021.0 0.5 ENE | 69 1.6 ENE | 75 274 8 0.2 5.8 51.4 3.7
12/3/21 - 0730 49.5 49.1 92 47.0 0.00 0.78 63.3 22.5 1,021.1 0.3 E | 87 1.3 E | 92 275 3 0.0 5.8 51.1 3.7
12/3/21 - 0720 49.2 48.8 92 46.7 0.00 0.78 63.4 22.5 1,021.1 0.6 SSW | 195 1.9 W | 264 275 -0 0.2 5.8 50.8 3.7
12/3/21 - 0710 49.0 48.7 92 46.5 0.00 0.78 63.4 22.5 1,021.0 1.1 SSW | 205 2.6 SW | 224 276 -2 0.7 5.7 50.7 3.7
12/3/21 - 0700 49.0 48.5 92 46.4 0.00 0.78 63.5 22.5 1,021.0 1.4 SW | 231 2.8 W | 268 276 -4 0.9 5.6 50.6 3.7
12/3/21 - 0650 48.7 48.4 92 46.2 0.00 0.78 63.6 22.5 1,021.0 1.4 WSW | 244 2.9 WSW | 256 275 -5 0.9 5.4 50.5 3.7
12/3/21 - 0640 48.6 48.4 92 46.1 0.00 0.78 63.6 22.5 1,021.0 0.8 SW | 215 3.4 W | 279 276 -6 0.7 5.3 50.6 3.7
12/3/21 - 0630 48.7 48.3 92 46.2 0.00 0.78 63.7 22.5 1,021.0 2.3 W | 259 3.7 W | 265 275 -6 1.7 5.2 50.8 3.7
12/3/21 - 0620 48.8 48.4 92 46.3 0.00 0.78 63.8 22.5 1,020.9 2.3 W | 264 4.3 W | 262 276 -7 1.6 4.9 50.9 3.7
12/3/21 - 0610 49.0 48.6 92 46.5 0.00 0.78 63.8 22.5 1,020.8 1.8 W | 265 3.7 W | 266 276 -7 1.3 4.6 51.0 3.7
12/3/21 - 0600 48.8 48.5 92 46.4 0.00 0.78 63.8 22.5 1,020.7 2.1 WSW | 242 3.5 SW | 226 276 -6 1.6 4.4 51.1 3.7
12/3/21 - 0550 49.0 48.7 91 46.4 0.00 0.78 63.7 22.5 1,020.7 2.6 WSW | 256 3.4 WSW | 244 275 -6 2.0 4.2 51.2 3.7
12/3/21 - 0540 49.3 48.8 91 46.6 0.00 0.78 63.8 22.5 1,020.6 1.5 W | 265 3.0 WSW | 250 276 -6 1.3 3.8 51.3 3.7
12/3/21 - 0530 49.2 48.8 91 46.6 0.00 0.78 63.9 22.5 1,020.5 1.6 W | 260 2.8 WSW | 247 276 -6 1.2 3.6 51.6 3.7
12/3/21 - 0520 49.5 49.1 91 46.8 0.00 0.78 63.8 22.5 1,020.3 2.3 WSW | 251 3.6 WSW | 249 276 -6 1.7 3.4 51.6 3.7
12/3/21 - 0510 49.7 49.2 91 46.8 0.00 0.78 63.8 22.5 1,020.2 2.4 WSW | 239 3.6 SSW | 211 275 -6 1.7 3.1 51.7 3.7
12/3/21 - 0500 49.8 49.4 90 46.9 0.00 0.78 63.8 22.5 1,020.0 1.3 WSW | 243 2.9 W | 271 275 -6 1.0 2.9 51.9 3.7
12/3/21 - 0450 50.0 49.6 90 47.0 0.00 0.78 63.7 22.5 1,020.0 2.0 WSW | 251 3.5 W | 264 275 -6 1.5 2.7 51.9 3.7
12/3/21 - 0440 50.1 49.7 90 47.0 0.00 0.78 63.5 22.5 1,019.9 1.7 W | 264 3.3 WSW | 243 275 -6 1.3 2.4 51.9 3.7
12/3/21 - 0430 50.2 49.8 90 47.0 0.00 0.78 64.0 22.5 1,019.9 2.1 WSW | 251 3.0 WSW | 249 275 -7 1.6 2.2 52.4 3.7
12/3/21 - 0420 50.6 49.9 89 47.2 0.00 0.78 63.9 22.5 1,019.9 1.9 WSW | 242 3.2 WSW | 246 275 -7 1.3 2.0 52.4 3.7
12/3/21 - 0410 50.7 50.3 89 47.3 0.00 0.78 63.8 22.5 1,019.9 1.0 SW | 217 2.9 SW | 228 275 -7 0.8 1.7 52.6 3.7
12/3/21 - 0400 50.9 50.6 88 47.4 0.00 0.78 64.0 22.5 1,019.9 1.4 WSW | 241 4.0 SW | 227 275 -7 1.0 1.6 52.9 3.7
12/3/21 - 0350 51.4 50.8 88 47.6 0.00 0.78 63.8 22.5 1,019.9 2.1 WSW | 246 4.2 WSW | 252 275 -7 1.6 1.4 53.0 3.7
12/3/21 - 0340 51.8 51.2 88 48.1 0.00 0.78 63.8 22.5 1,020.0 1.6 SW | 235 3.5 SSW | 210 274 -8 1.2 1.2 53.1 3.7
12/3/21 - 0330 51.9 51.5 88 48.3 0.00 0.78 63.8 22.5 1,020.0 0.1 WNW | 287 1.2 W | 267 274 -9 0.1 1.0 53.1 3.7
12/3/21 - 0320 51.8 51.6 88 48.4 0.00 0.78 63.9 22.5 1,020.1 0.5 WNW | 287 2.4 W | 275 274 -8 0.3 0.9 53.1 3.7
12/3/21 - 0310 51.9 51.6 88 48.4 0.00 0.78 63.9 22.5 1,020.1 0.5 NNE | 26 1.6 NNE | 29 274 -9 0.1 0.9 53.1 3.7
12/3/21 - 0300 51.9 51.5 88 48.4 0.00 0.78 63.9 22.5 1,020.1 0.5 NNE | 17 2.2 NNE | 29 274 -9 0.0 0.9 53.1 3.7
12/3/21 - 0250 51.8 51.5 88 48.4 0.00 0.78 63.9 22.6 1,020.2 1.1 WSW | 251 4.5 WSW | 239 274 -10 0.9 0.9 53.2 3.7
12/3/21 - 0240 52.0 51.7 88 48.5 0.00 0.78 63.9 22.5 1,020.2 0.6 SSW | 204 2.4 W | 280 274 -10 0.3 0.7 53.2 3.7
12/3/21 - 0230 51.9 51.6 89 48.6 0.00 0.78 64.1 22.5 1,020.3 0.3 ENE | 66 1.1 NE | 43 274 -10 0.0 0.7 53.4 3.7
12/3/21 - 0220 51.9 51.6 89 48.6 0.00 0.78 64.3 22.5 1,020.3 0.3 E | 80 1.5 E | 80 274 -9 0.1 0.7 53.7 3.7
12/3/21 - 0210 52.0 51.7 89 48.7 0.00 0.78 64.4 22.5 1,020.4 0.7 ENE | 68 2.0 ENE | 71 274 -8 0.2 0.7 53.8 3.7
12/3/21 - 0200 51.9 51.5 90 48.8 0.00 0.78 64.1 22.5 1,020.4 0.7 NE | 43 2.0 N | 11 274 -7 0.2 0.6 53.4 3.7
12/3/21 - 0150 51.8 51.5 90 48.8 0.00 0.78 63.8 22.5 1,020.4 0.3 NNE | 12 1.8 N | 0 274 -7 0.1 0.6 53.1 3.7
12/3/21 - 0140 51.7 51.3 90 48.7 0.00 0.78 63.7 22.5 1,020.5 0.3 S | 186 1.6 SW | 214 274 -7 0.1 0.6 52.9 3.7
12/3/21 - 0130 51.5 51.0 90 48.5 0.00 0.78 63.8 22.5 1,020.4 0.3 SW | 223 1.8 SSE | 151 275 -7 0.3 0.6 52.9 3.7
12/3/21 - 0120 51.4 51.0 90 48.4 0.00 0.78 63.8 22.6 1,020.5 0.5 SSE | 161 1.8 SSW | 199 275 -7 0.2 0.5 52.8 3.7
12/3/21 - 0110 51.3 51.0 90 48.3 0.00 0.78 63.7 22.5 1,020.6 1.2 SSE | 154 2.5 S | 171 274 -7 0.4 0.5 52.9 3.7
12/3/21 - 0100 51.3 50.9 90 48.2 0.00 0.78 63.7 22.5 1,020.5 0.5 S | 185 1.7 SE | 139 275 -6 0.2 0.4 52.8 3.7
12/3/21 - 0050 51.3 51.0 90 48.2 0.00 0.78 63.7 22.6 1,020.5 1.0 SSW | 206 2.3 SW | 222 275 -7 0.8 0.4 52.9 3.7
12/3/21 - 0040 51.2 51.0 90 48.2 0.00 0.78 63.7 22.6 1,020.6 0.9 SSE | 153 3.1 SE | 139 274 -7 0.2 0.2 53.0 3.7
12/3/21 - 0030 51.3 51.0 89 48.1 0.00 0.78 63.7 22.5 1,020.6 1.3 SSE | 159 3.0 SSE | 167 274 -8 0.8 0.2 53.2 3.7
12/3/21 - 0020 51.6 51.0 89 48.2 0.00 0.78 63.6 22.5 1,020.6 2.0 SE | 136 3.7 SE | 135 274 -7 0.2 0.1 53.3 3.7
12/3/21 - 0010 51.7 51.4 89 48.4 0.00 0.78 63.6 22.6 1,020.6 1.1 SE | 138 2.3 SE | 125 274 -7 0.3 0.0 53.3 3.7
12/3/21 - 0000 51.8 51.5 89 48.5 0.00 0.78 63.6 22.6 1,020.7 1.7 ESE | 122 3.5 SE | 134 274 -7 0.2 4.1 53.4 3.7
12/2/21 - 2350 51.9 51.6 89 48.7 0.00 0.78 63.7 22.6 1,020.7 1.6 ESE | 122 3.7 SE | 137 274 -6 0.2 4.1 53.4 3.7
12/2/21 - 2340 52.0 51.7 89 48.8 0.00 0.78 63.6 22.6 1,020.8 1.1 ESE | 107 2.5 SE | 142 274 -6 0.3 4.0 53.3 3.7
12/2/21 - 2330 52.0 51.8 89 48.9 0.00 0.78 63.7 22.6 1,020.8 0.3 ESE | 112 1.0 ENE | 70 275 -5 0.1 4.0 53.3 3.7
12/2/21 - 2320 51.9 51.7 90 48.8 0.00 0.78 63.7 22.6 1,020.9 0.8 ESE | 111 1.8 SE | 138 275 -5 0.0 3.9 53.2 3.7
12/2/21 - 2310 51.9 51.7 90 48.8 0.00 0.78 63.7 22.6 1,021.0 0.5 ESE | 116 1.5 SE | 124 275 -5 0.2 3.9 53.1 3.7
12/2/21 - 2300 52.0 51.7 90 48.8 0.00 0.78 63.7 22.6 1,021.0 0.7 SE | 124 2.5 SE | 143 275 -5 0.1 3.9 53.1 3.7
12/2/21 - 2250 51.9 51.6 90 48.8 0.00 0.78 63.7 22.6 1,020.9 0.5 ESE | 105 1.8 SE | 137 275 -4 0.1 3.9 53.0 3.7
12/2/21 - 2240 51.9 51.7 90 48.9 0.00 0.78 63.8 22.6 1,020.9 0.6 SE | 132 2.1 SE | 128 276 -4 0.1 3.9 52.9 3.7
12/2/21 - 2230 51.9 51.6 90 48.8 0.00 0.78 63.8 22.6 1,020.9 0.4 ENE | 66 1.8 ESE | 113 275 -3 0.0 3.8 52.8 3.7
12/2/21 - 2220 51.9 51.4 90 48.8 0.00 0.78 63.8 22.6 1,020.9 0.9 ESE | 102 2.7 E | 94 271 -3 0.1 3.8 52.6 3.7
12/2/21 - 2210 51.7 51.3 90 48.5 0.00 0.78 64.0 22.6 1,020.8 0.5 E | 80 3.0 ESE | 113 263 -3 0.0 3.8 52.1 3.7
12/2/21 - 2200 51.6 51.3 89 48.3 0.00 0.78 64.2 22.6 1,020.8 1.0 ENE | 75 3.1 ENE | 78 262 -2 0.3 3.8 51.7 3.7
12/2/21 - 2150 51.6 51.2 89 48.2 0.00 0.78 64.2 22.6 1,020.8 0.8 ENE | 61 2.7 ENE | 74 267 -2 0.1 3.8 50.6 3.7
12/2/21 - 2140 51.4 51.0 89 48.1 0.00 0.78 64.2 22.6 1,020.8 1.1 ENE | 59 3.1 ENE | 57 274 -3 0.2 3.8 48.1 3.7
12/2/21 - 2130 51.1 49.7 89 47.2 0.00 0.78 64.1 22.6 1,020.8 1.1 NNE | 19 2.5 NNW | 336 282 -3 0.1 3.7 43.7 3.7
12/2/21 - 2120 49.9 49.4 87 46.1 0.00 0.78 64.2 22.6 1,020.8 0.0 S | 183 0.2 S | 183 289 -7 0.0 3.7 40.3 3.7
12/2/21 - 2110 50.0 49.4 86 45.8 0.00 0.78 64.2 22.6 1,020.7 0.1 SSE | 157 0.7 SSE | 153 290 -25 0.0 3.7 39.5 3.7
12/2/21 - 2100 50.5 49.8 86 46.1 0.00 0.78 64.1 22.6 1,020.5 0.0 N | 0 0.0 SSE | 151 286 -32 0.0 3.7 39.9 3.7
12/2/21 - 2050 50.8 50.2 85 46.1 0.00 0.78 64.1 22.6 1,020.5 0.0 SE | 146 0.7 SE | 146 280 -35 0.1 3.7 40.5 3.7
12/2/21 - 2040 50.9 50.7 84 46.1 0.00 0.78 64.1 22.6 1,020.4 0.2 SSW | 202 0.6 SSW | 206 274 -39 0.0 3.7 41.1 3.7
12/2/21 - 2030 51.2 50.7 83 45.8 0.00 0.78 64.1 22.6 1,020.4 0.0 N | 0 0.0 ENE | 75 271 -45 0.0 3.7 41.6 3.7
12/2/21 - 2020 51.8 51.1 81 45.9 0.00 0.78 64.1 22.6 1,020.3 0.1 ESE | 104 1.4 ESE | 110 267 -48 0.0 3.7 42.0 3.7
12/2/21 - 2010 52.4 51.7 81 46.6 0.00 0.78 64.1 22.6 1,020.2 0.2 E | 82 1.4 NE | 56 263 -50 0.0 3.7 42.7 3.7
12/2/21 - 2000 52.7 52.4 81 46.8 0.00 0.78 64.1 22.6 1,020.1 0.3 ESE | 109 2.6 E | 86 260 -53 0.0 3.7 42.3 3.7
12/2/21 - 1950 52.8 52.3 80 46.7 0.00 0.78 64.2 22.6 1,020.0 1.0 ESE | 104 2.1 E | 80 262 -55 0.0 3.7 41.8 3.7
12/2/21 - 1940 52.8 52.4 79 46.3 0.00 0.78 64.1 22.6 1,019.9 0.2 SE | 128 1.1 SE | 133 263 -57 0.0 3.7 42.0 3.7
12/2/21 - 1930 52.8 52.5 78 46.0 0.00 0.78 64.2 22.6 1,019.7 0.0 ESE | 118 0.3 ESE | 118 270 -60 0.0 3.7 42.2 3.7
12/2/21 - 1920 52.7 52.0 76 44.8 0.00 0.78 64.1 22.6 1,019.6 0.5 SSW | 201 1.3 WSW | 239 272 -61 0.2 3.7 42.2 3.7
12/2/21 - 1910 53.0 52.1 75 44.8 0.00 0.78 64.1 22.6 1,019.4 0.3 SSE | 163 1.2 SSE | 161 271 -61 0.0 3.6 42.5 3.7
12/2/21 - 1900 53.1 52.6 74 44.7 0.00 0.78 64.1 22.6 1,019.3 0.3 SSE | 163 0.9 SSE | 156 271 -61 0.0 3.6 42.9 3.7
12/2/21 - 1850 53.7 53.1 72 44.7 0.00 0.78 64.1 22.6 1,019.1 0.0 SSE | 149 0.5 SSE | 149 271 -61 0.0 3.6 43.5 3.7
12/2/21 - 1840 53.9 53.6 73 45.2 0.00 0.78 64.1 22.6 1,019.0 0.1 SSE | 150 0.6 SSE | 149 270 -62 0.0 3.6 44.2 3.7
12/2/21 - 1830 53.9 53.6 72 45.0 0.00 0.78 64.2 22.6 1,019.0 0.6 SSE | 158 1.2 SE | 146 269 -62 0.0 3.6 44.8 3.7
12/2/21 - 1820 54.0 53.6 71 44.7 0.00 0.78 64.1 22.7 1,018.9 0.7 SSE | 168 1.8 S | 180 269 -64 0.1 3.6 45.4 3.7
12/2/21 - 1810 54.3 53.6 69 44.2 0.00 0.78 64.2 22.6 1,018.8 0.1 S | 169 0.6 S | 172 269 -64 0.0 3.6 46.1 3.7
12/2/21 - 1800 55.3 54.2 68 44.5 0.00 0.78 64.0 22.7 1,018.7 0.5 SSE | 151 1.3 SSE | 151 269 -66 0.0 3.6 46.7 3.7
12/2/21 - 1750 56.0 55.0 67 44.6 0.00 0.78 64.1 22.6 1,018.7 0.8 SSE | 151 1.3 SSE | 149 268 -67 0.1 3.6 47.2 3.7
12/2/21 - 1740 56.8 55.8 65 44.6